Slave Lake, Canada
Current Conditions -  °F | °C
As of 6:07 AM on Wednesday 22 Oct 2014 (Local Time) from CYZH Reporting Station
Haze Haze  
Wind Chill: 30°   Ceiling: 22000
Heat Index: 36°   Visibility: 2.2mi
Dew Point: 34°   Wind: 7mph
Humidity: 93%   Direction: 110°ESE
Pressure: 29.64"   Gusts: NA
Location:  55.27°N, 114.77°W
Report Text: CYZH 221207Z AUTO 11006KT 060V130 2 1/4SM BR BKN220 OVC240 02/01 A2964 RMK VIS VRB 1 1/4-3 SLP053
Loading
Personal Weather Stations






























Interactive Weather Map
Tropical Storm Tracking
New forecast layout! Learn more

10-Day Weather Forecast

Advertisements
Track Severe Weather on mobile